createdAt,value
2019-02-22T00:01:46.168Z,10.50
2019-02-22T00:04:15.321Z,10.50
2019-02-22T00:06:44.615Z,10.60
2019-02-22T00:09:13.685Z,10.50
2019-02-22T00:11:42.809Z,10.50
2019-02-22T00:14:11.884Z,10.60
2019-02-22T00:16:40.980Z,10.60
2019-02-22T00:19:10.356Z,10.60
2019-02-22T00:21:39.708Z,10.60
2019-02-22T00:24:08.998Z,10.60
2019-02-22T00:26:38.086Z,10.50
2019-02-22T00:29:08.462Z,10.50
2019-02-22T00:31:37.888Z,10.50
2019-02-22T00:34:07.043Z,10.50
2019-02-22T00:36:36.708Z,10.50
2019-02-22T00:39:06.733Z,10.50
2019-02-22T00:41:36.824Z,10.50
2019-02-22T00:44:06.584Z,10.50
2019-02-22T00:46:36.792Z,10.50
2019-02-22T00:49:06.756Z,10.40
2019-02-22T00:51:38.948Z,10.40
2019-02-22T00:54:08.263Z,10.50
2019-02-22T00:56:37.729Z,10.50
2019-02-22T00:59:07.011Z,10.50
2019-02-22T01:01:36.317Z,10.50
2019-02-22T01:04:05.560Z,10.50
2019-02-22T01:06:34.620Z,10.50
2019-02-22T01:09:04.397Z,10.50
2019-02-22T01:11:33.567Z,10.50
2019-02-22T01:14:03.067Z,10.50
2019-02-22T01:16:32.273Z,10.50
2019-02-22T01:19:01.388Z,10.50
2019-02-22T01:21:30.496Z,10.50
2019-02-22T01:23:59.916Z,10.50
2019-02-22T01:26:28.990Z,10.40
2019-02-22T01:28:58.261Z,10.40
2019-02-22T01:31:27.508Z,10.50
2019-02-22T01:33:56.700Z,10.40
2019-02-22T01:36:25.804Z,10.50
2019-02-22T01:38:55.173Z,10.40
2019-02-22T01:41:24.348Z,10.50
2019-02-22T01:43:54.247Z,10.50
2019-02-22T01:46:23.380Z,10.50
2019-02-22T01:48:52.441Z,10.50
2019-02-22T01:51:21.992Z,10.50
2019-02-22T01:53:53.970Z,10.50
2019-02-22T01:56:23.214Z,10.50
2019-02-22T01:58:52.337Z,10.40
2019-02-22T02:01:21.471Z,10.40
2019-02-22T02:03:51.148Z,10.50
2019-02-22T02:06:20.120Z,10.50
2019-02-22T02:08:49.316Z,10.50
2019-02-22T02:11:18.853Z,10.50
2019-02-22T02:13:48.328Z,10.50
2019-02-22T02:16:17.430Z,10.50
2019-02-22T02:18:46.624Z,10.50
2019-02-22T02:21:16.125Z,10.40
2019-02-22T02:23:45.544Z,10.40
2019-02-22T02:26:14.801Z,10.40
2019-02-22T02:28:44.328Z,10.50
2019-02-22T02:31:13.498Z,10.50
2019-02-22T02:33:44.696Z,10.50
2019-02-22T02:36:15.121Z,10.50
2019-02-22T02:38:44.206Z,10.50
2019-02-22T02:41:13.481Z,10.50
2019-02-22T02:43:42.630Z,10.50
2019-02-22T02:46:12.107Z,10.50
2019-02-22T02:48:42.148Z,10.50
2019-02-22T02:51:12.356Z,10.50
2019-02-22T02:53:42.048Z,10.50
2019-02-22T02:56:12.216Z,10.50
2019-02-22T02:58:42.771Z,10.40
2019-02-22T03:01:13.420Z,10.40
2019-02-22T03:03:42.446Z,10.50
2019-02-22T03:06:28.249Z,10.50
2019-02-22T03:08:57.305Z,10.50
2019-02-22T03:11:26.410Z,10.40
2019-02-22T03:13:55.520Z,10.50
2019-02-22T03:16:24.591Z,10.50
2019-02-22T03:18:53.727Z,10.50
2019-02-22T03:21:23.125Z,10.50
2019-02-22T03:23:52.125Z,10.50
2019-02-22T03:26:22.033Z,10.50
2019-02-22T03:28:51.416Z,10.50
2019-02-22T03:31:21.234Z,10.50
2019-02-22T03:33:50.594Z,10.50
2019-02-22T03:36:19.871Z,10.50
2019-02-22T03:38:50.804Z,10.50
2019-02-22T03:41:31.909Z,10.50
2019-02-22T03:43:50.871Z,10.50
2019-02-22T03:46:20.414Z,10.50
2019-02-22T03:48:50.583Z,10.50
2019-02-22T03:51:19.803Z,10.50
2019-02-22T03:53:57.397Z,10.50
2019-02-22T03:56:26.426Z,10.50
2019-02-22T03:58:55.823Z,10.50
2019-02-22T04:01:25.237Z,10.50
2019-02-22T04:03:54.442Z,10.50
2019-02-22T04:06:23.960Z,10.50
2019-02-22T04:08:53.068Z,10.50
2019-02-22T04:11:22.532Z,10.40
2019-02-22T04:13:51.705Z,10.40
2019-02-22T04:16:20.783Z,10.40
2019-02-22T04:18:50.168Z,10.40
2019-02-22T04:21:19.704Z,10.50
2019-02-22T04:23:48.848Z,10.40
2019-02-22T04:26:18.290Z,10.40
2019-02-22T04:28:47.425Z,10.40
2019-02-22T04:31:16.751Z,10.40
2019-02-22T04:33:46.009Z,10.40
2019-02-22T04:36:16.046Z,10.40
2019-02-22T04:38:47.372Z,10.40
2019-02-22T04:41:16.462Z,10.30
2019-02-22T04:43:47.171Z,10.30
2019-02-22T04:46:18.248Z,10.30
2019-02-22T04:48:47.441Z,10.40
2019-02-22T04:51:17.411Z,10.30
2019-02-22T04:53:46.812Z,10.30
2019-02-22T04:56:17.122Z,10.30
2019-02-22T04:58:46.868Z,10.30
2019-02-22T05:01:16.935Z,10.30
2019-02-22T05:03:47.232Z,10.20
2019-02-22T05:06:17.068Z,10.20
2019-02-22T05:08:47.416Z,10.20
2019-02-22T05:11:17.572Z,10.20
2019-02-22T05:13:47.684Z,10.30
2019-02-22T05:16:17.728Z,10.20
2019-02-22T05:18:47.720Z,10.20
2019-02-22T05:21:18.116Z,10.20
2019-02-22T05:23:48.093Z,10.20
2019-02-22T05:26:17.957Z,10.30
2019-02-22T05:28:48.497Z,10.30
2019-02-22T05:31:18.601Z,10.30
2019-02-22T05:33:48.412Z,10.20
2019-02-22T05:36:18.433Z,10.30
2019-02-22T05:38:48.593Z,10.30
2019-02-22T05:41:18.746Z,10.30
2019-02-22T05:43:48.544Z,10.30
2019-02-22T05:46:18.490Z,10.30
2019-02-22T05:48:47.929Z,10.30
2019-02-22T05:51:17.033Z,10.30
2019-02-22T05:53:46.717Z,10.30
2019-02-22T05:56:15.870Z,10.30
2019-02-22T05:58:45.117Z,10.30
2019-02-22T06:01:14.523Z,10.20
2019-02-22T06:03:43.669Z,10.20
2019-02-22T06:06:13.128Z,10.20
2019-02-22T06:08:42.363Z,10.20
2019-02-22T06:11:11.816Z,10.20
2019-02-22T06:13:41.533Z,10.30
2019-02-22T06:16:11.037Z,10.20
2019-02-22T06:18:40.976Z,10.20
2019-02-22T06:21:10.492Z,10.30
2019-02-22T06:23:39.924Z,10.30
2019-02-22T06:26:09.629Z,10.30
2019-02-22T06:28:38.682Z,10.30
2019-02-22T06:31:08.595Z,10.30
2019-02-22T06:33:38.516Z,10.30
2019-02-22T06:36:07.792Z,10.30
2019-02-22T06:38:37.109Z,10.30
2019-02-22T06:41:06.289Z,10.30
2019-02-22T06:43:35.403Z,10.30
2019-02-22T06:46:04.539Z,10.30
2019-02-22T06:48:33.612Z,10.20
2019-02-22T06:51:02.801Z,10.20
2019-02-22T06:53:31.905Z,10.30
2019-02-22T06:56:01.038Z,10.30
2019-02-22T06:58:30.581Z,10.30
2019-02-22T07:01:00.200Z,10.30
2019-02-22T07:03:29.369Z,10.30
2019-02-22T07:05:58.794Z,10.30
2019-02-22T07:08:28.346Z,10.30
2019-02-22T07:11:25.424Z,10.40
2019-02-22T07:13:55.184Z,10.50
2019-02-22T07:16:24.627Z,10.40
2019-02-22T07:18:54.015Z,10.40
2019-02-22T07:21:23.172Z,10.40
2019-02-22T07:23:52.290Z,10.40
2019-02-22T07:26:22.712Z,10.40
2019-02-22T07:28:52.795Z,10.40
2019-02-22T07:31:22.706Z,10.40
2019-02-22T07:33:53.137Z,10.40
2019-02-22T07:36:22.908Z,10.40
2019-02-22T07:38:52.816Z,10.40
2019-02-22T07:41:23.332Z,10.40
2019-02-22T07:43:53.504Z,10.40
2019-02-22T07:46:23.952Z,10.40
2019-02-22T07:48:53.636Z,10.40
2019-02-22T07:51:23.537Z,10.50
2019-02-22T07:53:53.764Z,10.50
2019-02-22T07:56:25.522Z,10.50
2019-02-22T07:58:54.628Z,10.50
2019-02-22T08:01:23.780Z,10.60
2019-02-22T08:03:54.164Z,10.60
2019-02-22T08:06:24.351Z,10.60
2019-02-22T08:08:54.476Z,10.60
2019-02-22T08:11:24.302Z,10.60
2019-02-22T08:13:54.268Z,10.60
2019-02-22T08:16:24.592Z,10.70
2019-02-22T08:19:01.534Z,10.70
2019-02-22T08:21:25.167Z,10.70
2019-02-22T08:23:54.968Z,10.70
2019-02-22T08:26:24.795Z,10.70
2019-02-22T08:28:55.148Z,10.70
2019-02-22T08:31:25.094Z,10.50
2019-02-22T08:33:57.104Z,10.60
2019-02-22T08:36:26.560Z,10.70
2019-02-22T08:38:55.644Z,10.70
2019-02-22T08:41:25.199Z,10.70
2019-02-22T08:43:55.913Z,10.70
2019-02-22T08:46:25.260Z,10.80
2019-02-22T08:48:55.828Z,10.80
2019-02-22T08:51:26.512Z,10.90
2019-02-22T08:53:57.092Z,10.90
2019-02-22T08:56:26.234Z,10.90
2019-02-22T08:58:55.900Z,11.00
2019-02-22T09:01:26.124Z,11.00
2019-02-22T09:03:55.540Z,11.10
2019-02-22T09:06:24.676Z,11.00
2019-02-22T09:08:53.819Z,11.10
2019-02-22T09:11:23.324Z,11.10
2019-02-22T09:13:52.484Z,11.10
2019-02-22T09:16:21.533Z,11.10
2019-02-22T09:18:50.938Z,11.20
2019-02-22T09:21:20.144Z,11.30
2019-02-22T09:23:49.648Z,11.40
2019-02-22T09:26:18.744Z,11.60
2019-02-22T09:28:47.998Z,11.60
2019-02-22T09:31:17.428Z,11.70
2019-02-22T09:33:46.654Z,11.80
2019-02-22T09:36:16.040Z,11.90
2019-02-22T09:38:45.562Z,12.00
2019-02-22T09:41:14.681Z,12.10
2019-02-22T09:43:54.322Z,12.20
2019-02-22T09:46:15.256Z,12.30
2019-02-22T09:48:44.437Z,12.30
2019-02-22T09:51:13.549Z,12.20
2019-02-22T09:53:42.980Z,12.30
2019-02-22T09:56:12.232Z,12.30
2019-02-22T09:58:42.712Z,12.40
2019-02-22T10:01:11.990Z,12.40
2019-02-22T10:03:41.078Z,12.50
2019-02-22T10:06:10.506Z,12.50
2019-02-22T10:08:41.047Z,12.50
2019-02-22T10:11:10.604Z,12.60
2019-02-22T10:13:39.724Z,12.60
2019-02-22T10:16:08.804Z,12.50
2019-02-22T10:18:38.258Z,12.50
2019-02-22T10:21:07.389Z,12.60
2019-02-22T10:23:36.469Z,12.80
2019-02-22T10:26:05.649Z,13.10
2019-02-22T10:28:35.232Z,13.20
2019-02-22T10:31:04.338Z,13.10
2019-02-22T10:33:36.693Z,13.10
2019-02-22T10:36:04.387Z,13.10
2019-02-22T10:38:35.860Z,13.00
2019-02-22T10:41:04.224Z,12.90
2019-02-22T10:43:33.600Z,12.90
2019-02-22T10:46:03.445Z,12.90
2019-02-22T10:48:32.860Z,13.00
2019-02-22T10:51:02.036Z,13.00
2019-02-22T10:53:31.538Z,13.10
2019-02-22T10:56:00.640Z,13.40
2019-02-22T10:58:30.008Z,13.60
2019-02-22T11:01:00.345Z,13.50
2019-02-22T11:03:30.645Z,13.50
2019-02-22T11:06:01.161Z,13.50
2019-02-22T11:08:31.229Z,13.80
2019-02-22T11:11:00.444Z,13.90
2019-02-22T11:13:30.514Z,14.00
2019-02-22T11:16:01.668Z,13.80
2019-02-22T11:18:31.184Z,13.70
2019-02-22T11:21:00.992Z,13.50
2019-02-22T11:23:30.972Z,13.70
2019-02-22T11:26:01.016Z,14.00
2019-02-22T11:28:30.274Z,14.30
2019-02-22T11:30:59.430Z,14.60
2019-02-22T11:33:28.555Z,14.60
2019-02-22T11:35:58.041Z,14.50
2019-02-22T11:38:27.113Z,14.00
2019-02-22T11:40:56.587Z,13.90
2019-02-22T11:43:25.982Z,13.70
2019-02-22T11:45:55.073Z,13.50
2019-02-22T11:48:25.052Z,13.50
2019-02-22T11:50:54.425Z,13.60
2019-02-22T11:53:23.976Z,13.70
2019-02-22T11:55:53.452Z,13.70
2019-02-22T11:58:22.733Z,13.70
2019-02-22T12:00:51.864Z,13.70
2019-02-22T12:03:24.944Z,13.80
2019-02-22T12:05:52.331Z,13.80
2019-02-22T12:08:22.209Z,13.70
2019-02-22T12:10:51.424Z,13.70
2019-02-22T12:13:20.941Z,13.70
2019-02-22T12:15:50.329Z,13.60
2019-02-22T12:18:19.719Z,13.70
2019-02-22T12:20:48.917Z,13.70
2019-02-22T12:23:17.880Z,13.60
2019-02-22T12:25:47.303Z,13.50
2019-02-22T12:28:16.704Z,13.60
2019-02-22T12:30:46.132Z,13.70
2019-02-22T12:33:15.606Z,13.80
2019-02-22T12:35:45.148Z,14.00
2019-02-22T12:38:14.120Z,14.20
2019-02-22T12:40:43.536Z,14.20
2019-02-22T12:43:12.642Z,14.00
2019-02-22T12:45:42.624Z,14.00
2019-02-22T12:48:12.005Z,13.80
2019-02-22T12:50:41.174Z,13.70
2019-02-22T12:53:10.284Z,13.70
2019-02-22T12:55:39.735Z,13.70
2019-02-22T12:58:10.442Z,13.90
2019-02-22T13:00:39.532Z,14.10
2019-02-22T13:03:08.866Z,14.30
2019-02-22T13:05:38.032Z,14.30
2019-02-22T13:08:07.724Z,14.10
2019-02-22T13:10:37.692Z,14.10
2019-02-22T13:13:08.045Z,14.00
2019-02-22T13:15:38.504Z,14.00
2019-02-22T13:18:08.452Z,13.90
2019-02-22T13:20:38.200Z,13.90
2019-02-22T13:23:08.445Z,14.00
2019-02-22T13:25:38.052Z,14.20
2019-02-22T13:28:08.316Z,14.20
2019-02-22T13:30:38.508Z,14.30
2019-02-22T13:33:08.688Z,14.20
2019-02-22T13:35:38.779Z,14.30
2019-02-22T13:38:08.944Z,14.30
2019-02-22T13:40:40.384Z,14.30
2019-02-22T13:43:09.372Z,14.30
2019-02-22T13:45:39.693Z,14.40
2019-02-22T13:48:09.301Z,14.40
2019-02-22T13:50:39.305Z,14.30
2019-02-22T13:53:08.423Z,14.30
2019-02-22T13:55:39.100Z,14.30
2019-02-22T13:58:08.124Z,14.40
2019-02-22T14:00:37.553Z,14.40
2019-02-22T14:03:45.151Z,14.40
2019-02-22T14:06:14.964Z,14.40
2019-02-22T14:08:44.365Z,14.30
2019-02-22T14:11:17.805Z,14.40
2019-02-22T14:13:46.910Z,14.30
2019-02-22T14:16:16.366Z,14.20
2019-02-22T14:18:45.388Z,14.10
2019-02-22T14:21:14.916Z,14.10
2019-02-22T14:23:45.289Z,14.10
2019-02-22T14:26:14.471Z,14.00
2019-02-22T14:28:44.496Z,13.90
2019-02-22T14:31:14.755Z,13.90
2019-02-22T14:33:44.152Z,13.90
2019-02-22T14:36:13.800Z,13.90
2019-02-22T14:38:43.486Z,13.80
2019-02-22T14:41:12.876Z,13.80
2019-02-22T14:43:44.012Z,13.80
2019-02-22T14:46:13.600Z,13.70
2019-02-22T14:48:42.737Z,13.60
2019-02-22T14:51:11.892Z,13.60
2019-02-22T14:53:40.963Z,13.60
2019-02-22T14:56:10.533Z,13.50
2019-02-22T14:58:39.844Z,13.60
2019-02-22T15:01:08.906Z,13.60
2019-02-22T15:03:38.130Z,13.70
2019-02-22T15:06:07.220Z,13.70
2019-02-22T15:08:37.888Z,13.80
2019-02-22T15:11:08.785Z,13.90
2019-02-22T15:13:37.981Z,14.00
2019-02-22T15:16:14.568Z,14.00
2019-02-22T15:18:44.190Z,14.00
2019-02-22T15:21:13.306Z,14.00
2019-02-22T15:23:46.696Z,14.00
2019-02-22T15:26:17.184Z,13.90
2019-02-22T15:28:46.283Z,14.00
2019-02-22T15:31:15.494Z,13.90
2019-02-22T15:33:44.968Z,13.80
2019-02-22T15:36:16.086Z,13.80
2019-02-22T15:38:45.724Z,13.70
2019-02-22T15:41:14.828Z,13.70
2019-02-22T15:43:44.069Z,13.60
2019-02-22T15:46:13.474Z,13.60
2019-02-22T15:48:42.676Z,13.50
2019-02-22T15:51:12.524Z,13.50
2019-02-22T15:53:45.826Z,13.50
2019-02-22T15:56:15.198Z,13.50
2019-02-22T15:58:45.578Z,13.50
2019-02-22T16:01:15.308Z,13.50
2019-02-22T16:03:51.510Z,13.50
2019-02-22T16:06:21.366Z,13.50
2019-02-22T16:08:51.355Z,13.60
2019-02-22T16:11:20.473Z,13.60
2019-02-22T16:13:49.627Z,13.60
2019-02-22T16:16:23.200Z,13.60
2019-02-22T16:18:50.508Z,13.60
2019-02-22T16:21:19.969Z,13.50
2019-02-22T16:23:49.116Z,13.50
2019-02-22T16:26:21.132Z,13.50
2019-02-22T16:28:50.990Z,13.50
2019-02-22T16:31:20.135Z,13.40
2019-02-22T16:33:49.590Z,13.40
2019-02-22T16:36:18.682Z,13.40
2019-02-22T16:38:48.320Z,13.40
2019-02-22T16:41:17.536Z,13.40
2019-02-22T16:43:46.676Z,13.40
2019-02-22T16:46:16.912Z,13.30
2019-02-22T16:48:46.185Z,13.30
2019-02-22T16:51:15.384Z,13.20
2019-02-22T16:53:44.462Z,13.20
2019-02-22T16:56:13.868Z,13.20
2019-02-22T16:58:44.649Z,13.20
2019-02-22T17:01:13.740Z,13.10
2019-02-22T17:03:43.153Z,13.10
2019-02-22T17:06:15.720Z,13.10
2019-02-22T17:08:45.392Z,13.10
2019-02-22T17:11:15.550Z,13.10
2019-02-22T17:13:45.701Z,13.00
2019-02-22T17:16:16.582Z,13.00
2019-02-22T17:18:45.859Z,13.00
2019-02-22T17:21:14.936Z,12.90
2019-02-22T17:23:44.432Z,12.80
2019-02-22T17:26:16.404Z,12.80
2019-02-22T17:28:45.546Z,12.70
2019-02-22T17:31:14.603Z,12.70
2019-02-22T17:33:43.884Z,12.70
2019-02-22T17:36:13.744Z,12.60
2019-02-22T17:38:43.524Z,12.50
2019-02-22T17:41:13.825Z,12.30
2019-02-22T17:44:24.019Z,12.20
2019-02-22T17:47:12.479Z,12.20
2019-02-22T17:49:42.808Z,12.10
2019-02-22T17:52:11.961Z,12.10
2019-02-22T17:54:41.932Z,12.00
2019-02-22T17:57:10.889Z,11.90
2019-02-22T17:59:39.981Z,11.80
2019-02-22T18:02:24.624Z,11.80
2019-02-22T18:05:10.080Z,11.80
2019-02-22T18:07:39.508Z,11.80
2019-02-22T18:10:08.744Z,11.80
2019-02-22T18:12:37.924Z,11.70
2019-02-22T18:15:07.519Z,11.60
2019-02-22T18:17:36.708Z,11.60
2019-02-22T18:20:06.239Z,11.50
2019-02-22T18:22:35.502Z,11.50
2019-02-22T18:25:04.993Z,11.50
2019-02-22T18:27:35.504Z,11.40
2019-02-22T18:30:05.277Z,11.40
2019-02-22T18:32:37.996Z,11.40
2019-02-22T18:35:07.580Z,11.30
2019-02-22T18:37:36.760Z,11.20
2019-02-22T18:40:07.776Z,11.20
2019-02-22T18:42:37.221Z,11.20
2019-02-22T18:45:06.432Z,11.10
2019-02-22T18:47:35.819Z,11.10
2019-02-22T18:50:05.448Z,11.10
2019-02-22T18:52:35.677Z,11.00
2019-02-22T18:55:06.172Z,11.00
2019-02-22T18:57:36.072Z,10.90
2019-02-22T19:00:07.879Z,10.90
2019-02-22T19:02:37.323Z,10.90
2019-02-22T19:05:06.948Z,10.90
2019-02-22T19:07:36.693Z,10.90
2019-02-22T19:10:07.784Z,10.80
2019-02-22T19:12:39.118Z,10.80
2019-02-22T19:15:10.205Z,10.80
2019-02-22T19:17:39.612Z,10.70
2019-02-22T19:20:12.072Z,10.70
2019-02-22T19:22:41.653Z,10.70
2019-02-22T19:25:11.106Z,10.70
2019-02-22T19:27:40.208Z,10.60
2019-02-22T19:30:14.452Z,10.60
2019-02-22T19:32:43.814Z,10.50
2019-02-22T19:35:13.084Z,10.50
2019-02-22T19:37:42.793Z,10.50
2019-02-22T19:40:13.952Z,10.50
2019-02-22T19:42:43.074Z,10.40
2019-02-22T19:45:12.189Z,10.30
2019-02-22T19:47:42.397Z,10.20
2019-02-22T19:50:12.681Z,10.30
2019-02-22T19:52:42.074Z,10.30
2019-02-22T19:55:13.120Z,10.30
2019-02-22T19:57:42.176Z,10.20
2019-02-22T20:00:13.796Z,10.20
2019-02-22T20:02:43.253Z,10.20
2019-02-22T20:05:15.687Z,10.20
2019-02-22T20:07:44.960Z,10.20
2019-02-22T20:10:18.109Z,10.20
2019-02-22T20:12:46.098Z,10.20
2019-02-22T20:15:15.568Z,10.20
2019-02-22T20:17:52.906Z,10.20
2019-02-22T20:20:15.833Z,10.10
2019-02-22T20:22:45.263Z,10.10
2019-02-22T20:25:14.445Z,10.00
2019-02-22T20:27:43.540Z,9.80
2019-02-22T20:30:14.783Z,9.70
2019-02-22T20:32:44.060Z,9.60
2019-02-22T20:35:15.304Z,9.60
2019-02-22T20:37:52.616Z,9.60
2019-02-22T20:40:15.575Z,9.50
2019-02-22T20:43:16.601Z,9.50
2019-02-22T20:45:46.141Z,9.40
2019-02-22T20:48:30.608Z,9.50
2019-02-22T20:51:00.128Z,9.50
2019-02-22T20:53:29.260Z,9.60
2019-02-22T20:55:58.409Z,9.60
2019-02-22T20:58:28.456Z,9.50
2019-02-22T21:00:57.572Z,9.50
2019-02-22T21:03:26.925Z,9.40
2019-02-22T21:05:56.131Z,9.40
2019-02-22T21:08:25.496Z,9.40
2019-02-22T21:10:56.035Z,9.40
2019-02-22T21:13:27.454Z,9.40
2019-02-22T21:15:56.384Z,9.50
2019-02-22T21:18:26.029Z,9.30
2019-02-22T21:20:59.645Z,9.10
2019-02-22T21:23:28.781Z,9.10
2019-02-22T21:25:57.859Z,9.10
2019-02-22T21:28:27.211Z,9.10
2019-02-22T21:30:56.348Z,9.10
2019-02-22T21:33:26.012Z,9.10
2019-02-22T21:35:55.296Z,9.00
2019-02-22T21:38:24.516Z,9.00
2019-02-22T21:40:53.768Z,9.00
2019-02-22T21:43:23.842Z,9.10
2019-02-22T21:45:53.952Z,9.10
2019-02-22T21:48:27.459Z,9.10
2019-02-22T21:50:55.303Z,9.10
2019-02-22T21:53:25.240Z,9.00
2019-02-22T21:55:58.249Z,9.00
2019-02-22T21:58:27.745Z,8.90
2019-02-22T22:00:57.161Z,8.90
2019-02-22T22:03:26.822Z,8.90
2019-02-22T22:06:01.784Z,9.00
2019-02-22T22:08:30.924Z,9.00
2019-02-22T22:11:00.889Z,9.00
2019-02-22T22:13:30.156Z,8.90
2019-02-22T22:15:59.912Z,8.90
2019-02-22T22:18:38.491Z,9.00
2019-02-22T22:21:00.464Z,8.80
2019-02-22T22:23:29.868Z,8.80
2019-02-22T22:28:36.010Z,8.70
2019-02-22T22:31:05.188Z,8.70
2019-02-22T22:33:34.308Z,8.80
2019-02-22T22:36:06.696Z,8.80
2019-02-22T22:38:36.420Z,8.80
2019-02-22T22:41:05.577Z,8.80
2019-02-22T22:43:34.986Z,8.80
2019-02-22T22:46:04.702Z,8.70
2019-02-22T22:48:35.130Z,8.60
2019-02-22T22:51:04.219Z,8.70
2019-02-22T22:53:33.656Z,8.60
2019-02-22T22:56:02.707Z,8.60
2019-02-22T22:58:32.372Z,8.50
2019-02-22T23:01:18.135Z,8.50
2019-02-22T23:03:47.384Z,8.40
2019-02-22T23:06:17.476Z,8.40
2019-02-22T23:08:46.756Z,8.40
2019-02-22T23:11:15.935Z,8.40
2019-02-22T23:13:45.121Z,8.40
2019-02-22T23:16:14.197Z,8.40
2019-02-22T23:18:44.592Z,8.40
2019-02-22T23:21:13.768Z,8.30
2019-02-22T23:23:42.995Z,8.30
2019-02-22T23:26:12.464Z,8.20
2019-02-22T23:28:41.536Z,8.30
2019-02-22T23:31:10.912Z,8.30
2019-02-22T23:33:40.358Z,8.20
2019-02-22T23:36:09.704Z,8.20
2019-02-22T23:38:38.930Z,8.10
2019-02-22T23:41:07.970Z,8.00
2019-02-22T23:43:37.153Z,8.00
2019-02-22T23:46:06.308Z,8.10
2019-02-22T23:48:35.416Z,8.10
2019-02-22T23:51:04.588Z,8.10
2019-02-22T23:53:34.586Z,8.00
2019-02-22T23:56:03.691Z,7.70
2019-02-22T23:58:34.112Z,7.60
